sensor_id;sensor_type;location;lat;lon;timestamp;pressure;altitude;pressure_sealevel;temperature;humidity
56811;BME280;42691;47.234;27.494;2023-02-19T00:01:04;98795.06;;;15.45;100.00
56811;BME280;42691;47.234;27.494;2023-02-19T00:03:30;98806.63;;;15.42;100.00
56811;BME280;42691;47.234;27.494;2023-02-19T00:05:56;98810.19;;;15.41;100.00
56811;BME280;42691;47.234;27.494;2023-02-19T00:08:21;98812.13;;;15.39;100.00
56811;BME280;42691;47.234;27.494;2023-02-19T00:10:46;98821.63;;;15.40;100.00
56811;BME280;42691;47.234;27.494;2023-02-19T00:13:12;98823.19;;;15.43;100.00
56811;BME280;42691;47.234;27.494;2023-02-19T00:15:38;98822.59;;;15.39;100.00
56811;BME280;42691;47.234;27.494;2023-02-19T00:18:04;98832.25;;;15.39;100.00
56811;BME280;42691;47.234;27.494;2023-02-19T00:20:30;98836.91;;;15.35;100.00
56811;BME280;42691;47.234;27.494;2023-02-19T00:22:55;98843.09;;;15.34;100.00
56811;BME280;42691;47.234;27.494;2023-02-19T00:25:20;98812.88;;;15.19;100.00
56811;BME280;42691;47.234;27.494;2023-02-19T00:27:46;98833.59;;;15.33;100.00
56811;BME280;42691;47.234;27.494;2023-02-19T00:30:11;98828.34;;;15.33;100.00
56811;BME280;42691;47.234;27.494;2023-02-19T00:32:37;98820.34;;;15.35;100.00
56811;BME280;42691;47.234;27.494;2023-02-19T00:35:02;98816.91;;;15.34;100.00
56811;BME280;42691;47.234;27.494;2023-02-19T00:37:28;98809.28;;;15.31;100.00
56811;BME280;42691;47.234;27.494;2023-02-19T00:39:53;98799.91;;;15.28;100.00
56811;BME280;42691;47.234;27.494;2023-02-19T00:42:19;98810.38;;;15.28;100.00
56811;BME280;42691;47.234;27.494;2023-02-19T00:44:44;98785.84;;;15.29;100.00
56811;BME280;42691;47.234;27.494;2023-02-19T00:47:10;98795.75;;;15.26;100.00
56811;BME280;42691;47.234;27.494;2023-02-19T00:49:35;98795.03;;;15.24;100.00
56811;BME280;42691;47.234;27.494;2023-02-19T00:52:01;98796.91;;;15.22;100.00
56811;BME280;42691;47.234;27.494;2023-02-19T00:54:26;98791.91;;;15.19;100.00
56811;BME280;42691;47.234;27.494;2023-02-19T00:56:52;98797.16;;;15.19;100.00
56811;BME280;42691;47.234;27.494;2023-02-19T00:59:17;98798.13;;;15.18;100.00
56811;BME280;42691;47.234;27.494;2023-02-19T01:01:43;98791.47;;;15.14;100.00
56811;BME280;42691;47.234;27.494;2023-02-19T01:04:09;98801.69;;;15.17;100.00
56811;BME280;42691;47.234;27.494;2023-02-19T01:06:35;98797.53;;;15.14;100.00
56811;BME280;42691;47.234;27.494;2023-02-19T01:09:01;98796.13;;;15.10;100.00
56811;BME280;42691;47.234;27.494;2023-02-19T01:11:27;98804.81;;;15.11;100.00
56811;BME280;42691;47.234;27.494;2023-02-19T01:13:56;98815.53;;;15.08;100.00
56811;BME280;42691;47.234;27.494;2023-02-19T01:16:22;98807.69;;;15.08;100.00
56811;BME280;42691;47.234;27.494;2023-02-19T01:18:49;98804.22;;;15.07;100.00
56811;BME280;42691;47.234;27.494;2023-02-19T01:21:17;98815.66;;;15.06;100.00
56811;BME280;42691;47.234;27.494;2023-02-19T01:23:43;98807.69;;;15.08;100.00
56811;BME280;42691;47.234;27.494;2023-02-19T01:26:12;98812.09;;;15.07;100.00
56811;BME280;42691;47.234;27.494;2023-02-19T01:28:38;98817.44;;;15.06;100.00
56811;BME280;42691;47.234;27.494;2023-02-19T01:31:05;98821.03;;;15.05;100.00
56811;BME280;42691;47.234;27.494;2023-02-19T01:33:32;98826.28;;;15.05;100.00
56811;BME280;42691;47.234;27.494;2023-02-19T01:35:58;98825.31;;;15.06;100.00
56811;BME280;42691;47.234;27.494;2023-02-19T01:38:23;98828.88;;;15.05;100.00
56811;BME280;42691;47.234;27.494;2023-02-19T01:41:04;98833.28;;;15.04;100.00
56811;BME280;42691;47.234;27.494;2023-02-19T01:43:32;98836.03;;;15.02;100.00
56811;BME280;42691;47.234;27.494;2023-02-19T01:45:57;98827.72;;;14.97;100.00
56811;BME280;42691;47.234;27.494;2023-02-19T01:48:35;98831.63;;;15.03;100.00
56811;BME280;42691;47.234;27.494;2023-02-19T01:51:08;98837.56;;;15.05;100.00
56811;BME280;42691;47.234;27.494;2023-02-19T01:53:36;98829.84;;;15.04;100.00
56811;BME280;42691;47.234;27.494;2023-02-19T01:56:03;98820.81;;;14.96;100.00
56811;BME280;42691;47.234;27.494;2023-02-19T01:58:32;98831.03;;;14.99;100.00
56811;BME280;42691;47.234;27.494;2023-02-19T02:01:00;98827.72;;;14.97;100.00
56811;BME280;42691;47.234;27.494;2023-02-19T02:03:27;98829.38;;;14.98;100.00
56811;BME280;42691;47.234;27.494;2023-02-19T02:06:29;98831.28;;;14.96;100.00
56811;BME280;42691;47.234;27.494;2023-02-19T02:08:56;98832.84;;;14.99;100.00
56811;BME280;42691;47.234;27.494;2023-02-19T02:11:45;98841.53;;;14.99;100.00
56811;BME280;42691;47.234;27.494;2023-02-19T02:14:12;98851.16;;;14.99;100.00
56811;BME280;42691;47.234;27.494;2023-02-19T02:16:41;98866.03;;;14.98;100.00
56811;BME280;42691;47.234;27.494;2023-02-19T02:33:16;98951.41;;;14.90;100.00
56811;BME280;42691;47.234;27.494;2023-02-19T02:35:55;98964.84;;;14.85;100.00
56811;BME280;42691;47.234;27.494;2023-02-19T02:38:24;98961.75;;;14.80;100.00
56811;BME280;42691;47.234;27.494;2023-02-19T02:40:52;98961.03;;;14.78;100.00
56811;BME280;42691;47.234;27.494;2023-02-19T02:43:18;98960.19;;;14.78;100.00
56811;BME280;42691;47.234;27.494;2023-02-19T02:45:44;98958.41;;;14.78;100.00
56811;BME280;42691;47.234;27.494;2023-02-19T02:50:59;98962.81;;;14.78;100.00
56811;BME280;42691;47.234;27.494;2023-02-19T02:54:01;98969.34;;;14.72;100.00
56811;BME280;42691;47.234;27.494;2023-02-19T02:56:47;98970.66;;;14.78;100.00
56811;BME280;42691;47.234;27.494;2023-02-19T02:59:14;98970.78;;;14.76;100.00
56811;BME280;42691;47.234;27.494;2023-02-19T03:01:48;98978.16;;;14.71;100.00
56811;BME280;42691;47.234;27.494;2023-02-19T03:04:36;98985.06;;;14.72;100.00
56811;BME280;42691;47.234;27.494;2023-02-19T03:07:25;98980.06;;;14.69;100.00
56811;BME280;42691;47.234;27.494;2023-02-19T03:09:55;98966.97;;;14.58;100.00
56811;BME280;42691;47.234;27.494;2023-02-19T03:12:24;98994.56;;;14.62;100.00
56811;BME280;42691;47.234;27.494;2023-02-19T03:15:10;98986.00;;;14.60;100.00
56811;BME280;42691;47.234;27.494;2023-02-19T03:18:01;98993.97;;;14.58;100.00
56811;BME280;42691;47.234;27.494;2023-02-19T03:20:49;98996.69;;;14.57;100.00
56811;BME280;42691;47.234;27.494;2023-02-19T03:23:17;99006.34;;;14.56;100.00
56811;BME280;42691;47.234;27.494;2023-02-19T03:25:45;99030.00;;;14.55;100.00
56811;BME280;42691;47.234;27.494;2023-02-19T03:28:32;99019.88;;;14.50;100.00
56811;BME280;42691;47.234;27.494;2023-02-19T03:31:20;99005.22;;;14.48;100.00
56811;BME280;42691;47.234;27.494;2023-02-19T03:33:52;99012.88;;;14.51;100.00
56811;BME280;42691;47.234;27.494;2023-02-19T03:36:20;99014.75;;;14.49;100.00
56811;BME280;42691;47.234;27.494;2023-02-19T03:38:56;99021.88;;;14.47;100.00
56811;BME280;42691;47.234;27.494;2023-02-19T03:41:40;99009.69;;;14.34;100.00
56811;BME280;42691;47.234;27.494;2023-02-19T03:47:18;99026.22;;;14.35;100.00
56811;BME280;42691;47.234;27.494;2023-02-19T03:57:54;99002.50;;;14.25;100.00
56811;BME280;42691;47.234;27.494;2023-02-19T04:03:32;99015.22;;;14.19;100.00
56811;BME280;42691;47.234;27.494;2023-02-19T04:06:04;99022.84;;;14.22;100.00
56811;BME280;42691;47.234;27.494;2023-02-19T04:08:33;99024.50;;;14.23;100.00
56811;BME280;42691;47.234;27.494;2023-02-19T04:11:01;99027.84;;;14.25;100.00
56811;BME280;42691;47.234;27.494;2023-02-19T04:13:35;99031.63;;;14.21;100.00
56811;BME280;42691;47.234;27.494;2023-02-19T04:16:06;99035.81;;;14.23;100.00
56811;BME280;42691;47.234;27.494;2023-02-19T04:18:36;99040.19;;;14.23;100.00
56811;BME280;42691;47.234;27.494;2023-02-19T04:21:04;99041.25;;;14.20;100.00
56811;BME280;42691;47.234;27.494;2023-02-19T04:23:35;99035.66;;;14.14;100.00
56811;BME280;42691;47.234;27.494;2023-02-19T04:26:02;99038.34;;;14.12;100.00
56811;BME280;42691;47.234;27.494;2023-02-19T04:28:28;99044.53;;;14.11;100.00
56811;BME280;42691;47.234;27.494;2023-02-19T04:30:54;99047.38;;;14.08;100.00
56811;BME280;42691;47.234;27.494;2023-02-19T04:33:19;99053.44;;;14.08;100.00
56811;BME280;42691;47.234;27.494;2023-02-19T04:35:44;99052.59;;;14.08;100.00
56811;BME280;42691;47.234;27.494;2023-02-19T04:38:10;99064.72;;;14.09;100.00
56811;BME280;42691;47.234;27.494;2023-02-19T04:40:38;99051.38;;;14.01;100.00
56811;BME280;42691;47.234;27.494;2023-02-19T04:43:03;99071.63;;;14.10;100.00
56811;BME280;42691;47.234;27.494;2023-02-19T04:45:28;99079.59;;;14.08;100.00
56811;BME280;42691;47.234;27.494;2023-02-19T04:47:56;99070.41;;;14.03;100.00
56811;BME280;42691;47.234;27.494;2023-02-19T04:50:21;99084.53;;;14.00;100.00
56811;BME280;42691;47.234;27.494;2023-02-19T04:52:47;99085.38;;;14.01;100.00
56811;BME280;42691;47.234;27.494;2023-02-19T04:55:12;99079.31;;;14.00;100.00
56811;BME280;42691;47.234;27.494;2023-02-19T04:57:38;99073.97;;;14.02;100.00
56811;BME280;42691;47.234;27.494;2023-02-19T05:00:04;99091.31;;;14.03;100.00
56811;BME280;42691;47.234;27.494;2023-02-19T05:02:29;99089.88;;;13.99;100.00
56811;BME280;42691;47.234;27.494;2023-02-19T05:04:55;99095.09;;;13.99;100.00
56811;BME280;42691;47.234;27.494;2023-02-19T05:07:20;99099.63;;;13.97;100.00
56811;BME280;42691;47.234;27.494;2023-02-19T05:09:46;99113.41;;;13.99;100.00
56811;BME280;42691;47.234;27.494;2023-02-19T05:12:11;99114.34;;;13.98;100.00
56811;BME280;42691;47.234;27.494;2023-02-19T05:14:36;99131.22;;;13.94;100.00
56811;BME280;42691;47.234;27.494;2023-02-19T05:17:02;99149.28;;;13.97;100.00
56811;BME280;42691;47.234;27.494;2023-02-19T05:19:27;99155.69;;;13.93;100.00
56811;BME280;42691;47.234;27.494;2023-02-19T05:21:53;99156.41;;;13.95;100.00
56811;BME280;42691;47.234;27.494;2023-02-19T05:24:18;99159.88;;;13.95;100.00
56811;BME280;42691;47.234;27.494;2023-02-19T05:26:43;99156.41;;;13.95;100.00
56811;BME280;42691;47.234;27.494;2023-02-19T05:29:09;99166.97;;;13.93;100.00
56811;BME280;42691;47.234;27.494;2023-02-19T05:31:34;99175.44;;;13.97;100.00
56811;BME280;42691;47.234;27.494;2023-02-19T05:34:00;99172.84;;;13.97;100.00
56811;BME280;42691;47.234;27.494;2023-02-19T05:36:26;99175.97;;;14.02;100.00
56811;BME280;42691;47.234;27.494;2023-02-19T05:38:55;99185.91;;;13.97;100.00
56811;BME280;42691;47.234;27.494;2023-02-19T05:41:27;99188.00;;;13.92;100.00
56811;BME280;42691;47.234;27.494;2023-02-19T05:43:53;99176.09;;;13.88;100.00
56811;BME280;42691;47.234;27.494;2023-02-19T05:46:24;99186.78;;;13.85;100.00
56811;BME280;42691;47.234;27.494;2023-02-19T05:48:51;99192.00;;;13.85;100.00
56811;BME280;42691;47.234;27.494;2023-02-19T05:51:20;99194.84;;;13.82;100.00
56811;BME280;42691;47.234;27.494;2023-02-19T05:53:46;99190.34;;;13.84;100.00
56811;BME280;42691;47.234;27.494;2023-02-19T05:58:49;99200.50;;;13.75;100.00
56811;BME280;42691;47.234;27.494;2023-02-19T06:01:20;99214.59;;;13.60;100.00
56811;BME280;42691;47.234;27.494;2023-02-19T06:03:46;99219.81;;;13.60;100.00
56811;BME280;42691;47.234;27.494;2023-02-19T06:06:12;99225.75;;;13.62;100.00
56811;BME280;42691;47.234;27.494;2023-02-19T06:08:38;99231.72;;;13.64;100.00
56811;BME280;42691;47.234;27.494;2023-02-19T06:11:04;99232.56;;;13.65;100.00
56811;BME280;42691;47.234;27.494;2023-02-19T06:13:29;99229.94;;;13.65;100.00
56811;BME280;42691;47.234;27.494;2023-02-19T06:15:55;99219.38;;;13.66;100.00
56811;BME280;42691;47.234;27.494;2023-02-19T06:18:20;99217.50;;;13.68;100.00
56811;BME280;42691;47.234;27.494;2023-02-19T06:20:46;99218.56;;;13.66;100.00
56811;BME280;42691;47.234;27.494;2023-02-19T06:23:12;99205.59;;;13.39;100.00
56811;BME280;42691;47.234;27.494;2023-02-19T06:25:37;99212.34;;;13.29;100.00
56811;BME280;42691;47.234;27.494;2023-02-19T06:28:03;99223.13;;;13.37;100.00
56811;BME280;42691;47.234;27.494;2023-02-19T06:30:29;99238.72;;;13.38;100.00
56811;BME280;42691;47.234;27.494;2023-02-19T06:32:54;99246.56;;;13.38;100.00
56811;BME280;42691;47.234;27.494;2023-02-19T06:35:20;99244.00;;;13.37;100.00
56811;BME280;42691;47.234;27.494;2023-02-19T06:37:46;99244.00;;;13.37;100.00
56811;BME280;42691;47.234;27.494;2023-02-19T06:40:12;99246.31;;;13.29;100.00
56811;BME280;42691;47.234;27.494;2023-02-19T06:42:37;99242.66;;;13.31;100.00
56811;BME280;42691;47.234;27.494;2023-02-19T06:45:03;99243.59;;;13.30;100.00
56811;BME280;42691;47.234;27.494;2023-02-19T06:47:32;99188.41;;;12.95;100.00
56811;BME280;42691;47.234;27.494;2023-02-19T06:49:59;99250.91;;;13.25;100.00
56811;BME280;42691;47.234;27.494;2023-02-19T06:52:25;99229.69;;;13.30;100.00
56811;BME280;42691;47.234;27.494;2023-02-19T06:54:50;99185.84;;;13.08;100.00
56811;BME280;42691;47.234;27.494;2023-02-19T06:57:16;99188.63;;;12.92;100.00
56811;BME280;42691;47.234;27.494;2023-02-19T06:59:43;99185.88;;;12.81;100.00
56811;BME280;42691;47.234;27.494;2023-02-19T07:02:10;99174.28;;;12.72;100.00
56811;BME280;42691;47.234;27.494;2023-02-19T07:04:35;99180.44;;;12.71;100.00
56811;BME280;42691;47.234;27.494;2023-02-19T07:07:01;99165.81;;;12.69;100.00
56811;BME280;42691;47.234;27.494;2023-02-19T07:09:26;99171.16;;;12.80;100.00
56811;BME280;42691;47.234;27.494;2023-02-19T07:11:52;99152.88;;;12.67;100.00
56811;BME280;42691;47.234;27.494;2023-02-19T07:14:18;99137.75;;;12.85;100.00
56811;BME280;42691;47.234;27.494;2023-02-19T07:16:45;99117.44;;;13.03;100.00
56811;BME280;42691;47.234;27.494;2023-02-19T07:19:11;99114.72;;;13.04;100.00
56811;BME280;42691;47.234;27.494;2023-02-19T07:21:38;99116.94;;;13.10;100.00
56811;BME280;42691;47.234;27.494;2023-02-19T07:24:04;99129.66;;;13.02;100.00
56811;BME280;42691;47.234;27.494;2023-02-19T07:26:29;99136.72;;;13.00;100.00
56811;BME280;42691;47.234;27.494;2023-02-19T07:28:55;99162.00;;;13.00;100.00
56811;BME280;42691;47.234;27.494;2023-02-19T07:31:22;99166.88;;;13.19;100.00
56811;BME280;42691;47.234;27.494;2023-02-19T07:33:48;99178.28;;;13.18;100.00
56811;BME280;42691;47.234;27.494;2023-02-19T07:36:15;99173.22;;;13.14;100.00
56811;BME280;42691;47.234;27.494;2023-02-19T07:38:41;99195.41;;;13.22;100.00
56811;BME280;42691;47.234;27.494;2023-02-19T07:41:07;99190.41;;;13.19;100.00
56811;BME280;42691;47.234;27.494;2023-02-19T07:43:34;99181.47;;;13.08;100.00
56811;BME280;42691;47.234;27.494;2023-02-19T07:46:08;99184.50;;;13.02;100.00
56811;BME280;42691;47.234;27.494;2023-02-19T07:48:35;99174.78;;;13.04;100.00
56811;BME280;42691;47.234;27.494;2023-02-19T07:51:02;99182.94;;;13.12;100.00
56811;BME280;42691;47.234;27.494;2023-02-19T07:53:28;99195.22;;;13.25;100.00
56811;BME280;42691;47.234;27.494;2023-02-19T07:56:02;99182.16;;;13.25;100.00
56811;BME280;42691;47.234;27.494;2023-02-19T07:58:28;99196.91;;;13.51;100.00
56811;BME280;42691;47.234;27.494;2023-02-19T08:00:54;99216.25;;;13.61;100.00
56811;BME280;42691;47.234;27.494;2023-02-19T08:03:20;99212.28;;;13.68;100.00
56811;BME280;42691;47.234;27.494;2023-02-19T08:05:45;99227.97;;;13.81;100.00
56811;BME280;42691;47.234;27.494;2023-02-19T08:08:13;99222.22;;;13.89;100.00
56811;BME280;42691;47.234;27.494;2023-02-19T08:10:39;99191.50;;;13.80;100.00
56811;BME280;42691;47.234;27.494;2023-02-19T08:13:22;99193.25;;;13.92;100.00
56811;BME280;42691;47.234;27.494;2023-02-19T08:15:51;99188.53;;;13.97;100.00
56811;BME280;42691;47.234;27.494;2023-02-19T08:18:20;99182.88;;;14.03;100.00
56811;BME280;42691;47.234;27.494;2023-02-19T08:20:46;99176.91;;;14.14;100.00
56811;BME280;42691;47.234;27.494;2023-02-19T08:23:12;99168.00;;;14.16;100.00
56811;BME280;42691;47.234;27.494;2023-02-19T08:25:38;99167.06;;;14.17;100.00
56811;BME280;42691;47.234;27.494;2023-02-19T08:28:05;99177.47;;;14.30;100.00
56811;BME280;42691;47.234;27.494;2023-02-19T08:30:31;99183.03;;;14.25;100.00
56811;BME280;42691;47.234;27.494;2023-02-19T08:32:58;99190.56;;;14.30;100.00
56811;BME280;42691;47.234;27.494;2023-02-19T08:35:24;99197.34;;;14.32;100.00
56811;BME280;42691;47.234;27.494;2023-02-19T08:37:49;99197.75;;;14.39;100.00
56811;BME280;42691;47.234;27.494;2023-02-19T08:40:15;99196.50;;;14.45;100.00
56811;BME280;42691;47.234;27.494;2023-02-19T08:42:41;99182.25;;;14.49;100.00
56811;BME280;42691;47.234;27.494;2023-02-19T08:45:07;99181.81;;;14.55;100.00
56811;BME280;42691;47.234;27.494;2023-02-19T08:47:36;99199.47;;;14.64;100.00
56811;BME280;42691;47.234;27.494;2023-02-19T08:50:03;99197.34;;;14.69;100.00
56811;BME280;42691;47.234;27.494;2023-02-19T08:52:30;99190.34;;;14.69;100.00
56811;BME280;42691;47.234;27.494;2023-02-19T08:54:55;99190.69;;;14.65;100.00
56811;BME280;42691;47.234;27.494;2023-02-19T08:57:21;99187.59;;;14.71;100.00
56811;BME280;42691;47.234;27.494;2023-02-19T08:59:46;99186.94;;;14.80;100.00
56811;BME280;42691;47.234;27.494;2023-02-19T09:02:12;99186.41;;;14.88;100.00
56811;BME280;42691;47.234;27.494;2023-02-19T09:04:38;99170.22;;;14.94;100.00
56811;BME280;42691;47.234;27.494;2023-02-19T09:07:04;99177.38;;;15.03;100.00
56811;BME280;42691;47.234;27.494;2023-02-19T09:09:32;99172.38;;;15.00;100.00
56811;BME280;42691;47.234;27.494;2023-02-19T09:11:58;99173.25;;;15.12;100.00
56811;BME280;42691;47.234;27.494;2023-02-19T09:14:23;99168.84;;;15.12;100.00
56811;BME280;42691;47.234;27.494;2023-02-19T09:16:49;99158.00;;;15.17;100.00
56811;BME280;42691;47.234;27.494;2023-02-19T09:19:14;99152.31;;;15.23;100.00
56811;BME280;42691;47.234;27.494;2023-02-19T09:21:41;99153.78;;;15.27;100.00
56811;BME280;42691;47.234;27.494;2023-02-19T09:24:10;99146.50;;;15.30;100.00
56811;BME280;42691;47.234;27.494;2023-02-19T09:26:35;99128.88;;;15.32;100.00
56811;BME280;42691;47.234;27.494;2023-02-19T09:29:00;99124.13;;;15.38;100.00
56811;BME280;42691;47.234;27.494;2023-02-19T09:31:26;99130.66;;;15.43;100.00
56811;BME280;42691;47.234;27.494;2023-02-19T09:33:51;99128.66;;;15.47;100.00
56811;BME280;42691;47.234;27.494;2023-02-19T09:36:17;99136.38;;;15.48;100.00
56811;BME280;42691;47.234;27.494;2023-02-19T09:38:43;99137.59;;;15.55;100.00
56811;BME280;42691;47.234;27.494;2023-02-19T09:41:21;99139.03;;;15.59;100.00
56811;BME280;42691;47.234;27.494;2023-02-19T09:43:48;99119.81;;;15.48;100.00
56811;BME280;42691;47.234;27.494;2023-02-19T09:46:26;99131.38;;;15.56;100.00
56811;BME280;42691;47.234;27.494;2023-02-19T09:48:59;99152.91;;;15.73;100.00
56811;BME280;42691;47.234;27.494;2023-02-19T09:51:26;99160.53;;;15.76;100.00
56811;BME280;42691;47.234;27.494;2023-02-19T09:53:53;99158.38;;;15.70;100.00
56811;BME280;42691;47.234;27.494;2023-02-19T09:56:20;99154.81;;;15.71;100.00
56811;BME280;42691;47.234;27.494;2023-02-19T09:58:51;99160.03;;;15.82;100.00
56811;BME280;42691;47.234;27.494;2023-02-19T10:01:18;99163.38;;;15.84;100.00
56811;BME280;42691;47.234;27.494;2023-02-19T10:03:46;99173.63;;;15.87;100.00
56811;BME280;42691;47.234;27.494;2023-02-19T10:06:19;99174.69;;;15.84;100.00
56811;BME280;42691;47.234;27.494;2023-02-19T10:08:47;99164.22;;;15.84;100.00
56811;BME280;42691;47.234;27.494;2023-02-19T10:11:14;99160.03;;;15.82;100.00
56811;BME280;42691;47.234;27.494;2023-02-19T10:13:48;99157.28;;;15.83;100.00
56811;BME280;42691;47.234;27.494;2023-02-19T10:16:20;99159.31;;;15.91;100.00
56811;BME280;42691;47.234;27.494;2023-02-19T10:18:48;99158.94;;;15.95;100.00
56811;BME280;42691;47.234;27.494;2023-02-19T10:21:19;99163.13;;;15.98;100.00
56811;BME280;42691;47.234;27.494;2023-02-19T10:23:48;99153.59;;;15.97;100.00
56811;BME280;42691;47.234;27.494;2023-02-19T10:26:14;99139.50;;;15.98;100.00
56811;BME280;42691;47.234;27.494;2023-02-19T10:28:40;99148.84;;;16.02;100.00
56811;BME280;42691;47.234;27.494;2023-02-19T10:31:17;99135.94;;;16.10;100.00
56811;BME280;42691;47.234;27.494;2023-02-19T10:33:54;99125.06;;;16.15;100.00
56811;BME280;42691;47.234;27.494;2023-02-19T10:36:31;99124.00;;;16.17;100.00
56811;BME280;42691;47.234;27.494;2023-02-19T10:38:59;99118.75;;;16.17;100.00
56811;BME280;42691;47.234;27.494;2023-02-19T10:41:26;99111.69;;;16.18;100.00
56811;BME280;42691;47.234;27.494;2023-02-19T10:43:56;99115.13;;;16.30;100.00
56811;BME280;42691;47.234;27.494;2023-02-19T10:46:31;99106.41;;;16.29;100.00
56811;BME280;42691;47.234;27.494;2023-02-19T10:48:59;99106.66;;;16.26;100.00
56811;BME280;42691;47.234;27.494;2023-02-19T10:51:39;99087.47;;;16.25;100.00
56811;BME280;42691;47.234;27.494;2023-02-19T10:56:42;99094.59;;;16.35;100.00
56811;BME280;42691;47.234;27.494;2023-02-19T11:01:58;99081.84;;;16.30;100.00
56811;BME280;42691;47.234;27.494;2023-02-19T11:04:31;99077.66;;;16.27;100.00
56811;BME280;42691;47.234;27.494;2023-02-19T11:07:16;99075.03;;;16.27;100.00
56811;BME280;42691;47.234;27.494;2023-02-19T11:09:44;99069.34;;;16.22;100.00
56811;BME280;42691;47.234;27.494;2023-02-19T11:12:23;99064.34;;;16.19;100.00
56811;BME280;42691;47.234;27.494;2023-02-19T11:14:49;99054.09;;;16.16;100.00
56811;BME280;42691;47.234;27.494;2023-02-19T11:17:29;99061.25;;;16.14;100.00
56811;BME280;42691;47.234;27.494;2023-02-19T11:20:01;99054.34;;;16.13;100.00
56811;BME280;42691;47.234;27.494;2023-02-19T11:22:34;99054.34;;;16.13;100.00
56811;BME280;42691;47.234;27.494;2023-02-19T11:28:02;99048.25;;;16.13;100.00
56811;BME280;42691;47.234;27.494;2023-02-19T11:30:43;99039.09;;;16.07;100.00
56811;BME280;42691;47.234;27.494;2023-02-19T11:35:40;99043.97;;;16.12;100.00
56811;BME280;42691;47.234;27.494;2023-02-19T11:38:08;99043.28;;;16.10;100.00
56811;BME280;42691;47.234;27.494;2023-02-19T11:40:53;99039.34;;;16.04;100.00
56811;BME280;42691;47.234;27.494;2023-02-19T11:43:39;99048.06;;;16.05;100.00
56811;BME280;42691;47.234;27.494;2023-02-19T11:46:15;99038.41;;;15.94;100.00
56811;BME280;42691;47.234;27.494;2023-02-19T11:56:40;99031.22;;;15.64;100.00
56811;BME280;42691;47.234;27.494;2023-02-19T12:08:17;99020.31;;;15.57;100.00
56811;BME280;42691;47.234;27.494;2023-02-19T12:13:38;99012.47;;;15.46;100.00
56811;BME280;42691;47.234;27.494;2023-02-19T12:16:22;99007.72;;;15.40;100.00
56811;BME280;42691;47.234;27.494;2023-02-19T12:35:11;98990.81;;;14.99;100.00
56811;BME280;42691;47.234;27.494;2023-02-19T12:43:16;98987.44;;;14.86;100.00
56811;BME280;42691;47.234;27.494;2023-02-19T12:45:56;98983.53;;;14.81;100.00
56811;BME280;42691;47.234;27.494;2023-02-19T12:51:16;98965.19;;;14.69;100.00
56811;BME280;42691;47.234;27.494;2023-02-19T12:53:50;98959.13;;;14.69;100.00
56811;BME280;42691;47.234;27.494;2023-02-19T12:56:27;98962.31;;;14.61;100.00
56811;BME280;42691;47.234;27.494;2023-02-19T12:59:07;98953.38;;;14.53;100.00
56811;BME280;42691;47.234;27.494;2023-02-19T13:01:42;98965.28;;;14.57;100.00
56811;BME280;42691;47.234;27.494;2023-02-19T13:04:27;98946.09;;;14.45;100.00
56811;BME280;42691;47.234;27.494;2023-02-19T13:07:09;98968.47;;;14.49;100.00
56811;BME280;42691;47.234;27.494;2023-02-19T13:09:54;98961.56;;;14.48;100.00
56811;BME280;42691;47.234;27.494;2023-02-19T13:14:53;98952.41;;;14.43;100.00
56811;BME280;42691;47.234;27.494;2023-02-19T13:17:25;98963.19;;;14.38;100.00
56811;BME280;42691;47.234;27.494;2023-02-19T13:19:57;98965.31;;;14.33;100.00
56811;BME280;42691;47.234;27.494;2023-02-19T13:22:33;98960.19;;;14.31;100.00
56811;BME280;42691;47.234;27.494;2023-02-19T13:25:20;98948.75;;;14.21;100.00
56811;BME280;42691;47.234;27.494;2023-02-19T13:30:59;98960.50;;;14.16;100.00
56811;BME280;42691;47.234;27.494;2023-02-19T13:33:52;98953.63;;;14.15;100.00
56811;BME280;42691;47.234;27.494;2023-02-19T13:36:25;98950.06;;;14.16;100.00
56811;BME280;42691;47.234;27.494;2023-02-19T13:38:52;98942.69;;;14.21;100.00
56811;BME280;42691;47.234;27.494;2023-02-19T13:41:36;98934.00;;;14.20;100.00
56811;BME280;42691;47.234;27.494;2023-02-19T13:44:05;98922.81;;;14.18;100.00
56811;BME280;42691;47.234;27.494;2023-02-19T13:46:38;98920.22;;;14.29;100.00
56811;BME280;42691;47.234;27.494;2023-02-19T13:51:56;98907.88;;;14.31;100.00
56811;BME280;42691;47.234;27.494;2023-02-19T13:54:30;98905.59;;;14.27;100.00
56811;BME280;42691;47.234;27.494;2023-02-19T13:57:24;98910.59;;;14.30;100.00
56811;BME280;42691;47.234;27.494;2023-02-19T13:59:57;98915.00;;;14.29;100.00
56811;BME280;42691;47.234;27.494;2023-02-19T14:02:31;98920.47;;;14.26;100.00
56811;BME280;42691;47.234;27.494;2023-02-19T14:05:10;98901.19;;;14.27;100.00
56811;BME280;42691;47.234;27.494;2023-02-19T14:07:48;98902.63;;;14.31;100.00
56811;BME280;42691;47.234;27.494;2023-02-19T14:16:32;98894.19;;;14.39;100.00
56811;BME280;42691;47.234;27.494;2023-02-19T14:19:14;98893.13;;;14.42;100.00
56811;BME280;42691;47.234;27.494;2023-02-19T14:21:40;98874.34;;;14.36;100.00
56811;BME280;42691;47.234;27.494;2023-02-19T14:24:12;98887.69;;;14.45;100.00
56811;BME280;42691;47.234;27.494;2023-02-19T14:26:39;98885.59;;;14.50;100.00
56811;BME280;42691;47.234;27.494;2023-02-19T14:29:07;98887.25;;;14.51;100.00
56811;BME280;42691;47.234;27.494;2023-02-19T14:31:37;98887.84;;;14.54;100.00
56811;BME280;42691;47.234;27.494;2023-02-19T14:34:15;98885.94;;;14.56;100.00
56811;BME280;42691;47.234;27.494;2023-02-19T14:37:02;98882.84;;;14.51;100.00